Time;durP1;ratioP1;P1;durP2;ratioP2;P2;SDS_P1;SDS_P2;PMS_P1;PMS_P2;Temp;Humidity;BMP_temperature;BMP_pressure;BME280_temperature;BME280_humidity;BME280_pressure;Samples;Min_cycle;Max_cycle;Signal;HPM_P1;HPM_P2
2022/08/20 00:00:22;;;;;;;24.27;13.87;;;;;;;;;;4976072;28;20481;-52
2022/08/20 00:02:53;;;;;;;22.33;14.00;;;;;;;;;;4976093;28;20492;-51
2022/08/20 00:05:23;;;;;;;27.77;14.17;;;;;;;;;;4975982;28;20410;-52
2022/08/20 00:07:50;;;;;;;24.20;13.17;;;;;;;;;;4975954;28;20772;-52
2022/08/20 00:10:16;;;;;;;22.23;14.10;;;;;;;;;;4975618;28;20942;-53
2022/08/20 00:12:46;;;;;;;23.98;13.00;;;;;;;;;;4975471;28;20414;-53
2022/08/20 00:15:12;;;;;;;14.37;8.83;;;;;;;;;;4973627;28;20756;-53
2022/08/20 00:17:38;;;;;;;23.80;11.23;;;;;;;;;;4975676;28;20514;-53
2022/08/20 00:20:06;;;;;;;22.53;8.40;;;;;;;;;;4975549;28;20941;-53
2022/08/20 00:22:32;;;;;;;8.97;6.50;;;;;;;;;;4975761;28;20405;-53
2022/08/20 00:24:58;;;;;;;9.10;4.87;;;;;;;;;;4975616;28;20405;-54
2022/08/20 00:27:24;;;;;;;5.60;4.57;;;;;;;;;;4975680;28;20787;-54
2022/08/20 00:29:50;;;;;;;3.90;3.13;;;;;;;;;;4975328;28;20427;-54
2022/08/20 00:32:16;;;;;;;6.43;2.87;;;;;;;;;;4975595;28;20461;-54
2022/08/20 00:34:42;;;;;;;7.10;2.80;;;;;;;;;;4975508;28;20905;-53
2022/08/20 00:37:08;;;;;;;3.70;2.27;;;;;;;;;;4975399;28;20469;-53
2022/08/20 00:39:35;;;;;;;11.80;3.57;;;;;;;;;;4975071;28;20426;-53
2022/08/20 00:42:01;;;;;;;7.20;1.97;;;;;;;;;;4975626;28;20457;-53
2022/08/20 00:44:27;;;;;;;23.13;4.30;;;;;;;;;;4974472;28;20510;-53
2022/08/20 00:46:54;;;;;;;16.87;4.43;;;;;;;;;;4974512;28;20425;-55
2022/08/20 00:49:23;;;;;;;10.63;5.10;;;;;;;;;;4974710;28;20428;-55
2022/08/20 00:52:05;;;;;;;8.07;5.70;;;;;;;;;;4975039;28;20999;-55
2022/08/20 00:54:37;;;;;;;15.17;7.07;;;;;;;;;;4975106;28;20375;-54
2022/08/20 00:57:07;;;;;;;9.47;6.57;;;;;;;;;;4975023;28;20459;-54
2022/08/20 00:59:35;;;;;;;7.17;5.40;;;;;;;;;;4974843;28;20432;-54
2022/08/20 01:02:01;;;;;;;12.03;5.70;;;;;;;;;;4975103;28;20391;-55
2022/08/20 01:04:32;;;;;;;7.07;5.30;;;;;;;;;;4974954;28;20424;-54
2022/08/20 01:06:58;;;;;;;11.13;5.70;;;;;;;;;;4974878;28;20408;-54
2022/08/20 01:09:24;;;;;;;9.30;5.73;;;;;;;;;;4974573;28;20921;-54
2022/08/20 01:11:50;;;;;;;17.73;6.83;;;;;;;;;;4974846;28;20914;-53
2022/08/20 01:14:27;;;;;;;13.20;5.80;;;;;;;;;;4973683;28;20472;-54
2022/08/20 01:16:55;;;;;;;20.03;11.77;;;;;;;;;;4974567;28;20440;-54
2022/08/20 01:19:24;;;;;;;13.40;8.40;;;;;;;;;;4974416;28;20517;-54
2022/08/20 01:21:51;;;;;;;10.97;7.57;;;;;;;;;;4974632;28;20408;-54
2022/08/20 01:24:21;;;;;;;12.10;7.90;;;;;;;;;;4974597;28;20401;-54
2022/08/20 01:26:48;;;;;;;16.07;10.60;;;;;;;;;;4974500;28;20496;-55
2022/08/20 01:29:19;;;;;;;18.00;11.20;;;;;;;;;;4974185;28;20404;-54
2022/08/20 01:31:45;;;;;;;17.53;11.30;;;;;;;;;;4974454;28;20386;-55
2022/08/20 01:34:14;;;;;;;19.90;11.40;;;;;;;;;;4974399;28;20405;-53
2022/08/20 01:36:44;;;;;;;20.60;12.20;;;;;;;;;;4974231;28;20819;-54
2022/08/20 01:39:13;;;;;;;21.83;12.47;;;;;;;;;;4974017;28;20408;-55
2022/08/20 01:41:57;;;;;;;22.20;11.37;;;;;;;;;;4974281;28;20408;-54
2022/08/20 01:44:23;;;;;;;26.67;11.73;;;;;;;;;;4973213;28;20475;-55
2022/08/20 01:46:51;;;;;;;17.73;11.20;;;;;;;;;;4973216;28;20437;-54
2022/08/20 01:49:19;;;;;;;20.73;12.07;;;;;;;;;;4973909;28;20425;-54
2022/08/20 01:51:45;;;;;;;19.80;11.90;;;;;;;;;;4973977;28;20480;-55
2022/08/20 01:54:12;;;;;;;30.13;12.63;;;;;;;;;;4974005;28;20405;-55
2022/08/20 01:56:50;;;;;;;17.17;12.33;;;;;;;;;;4973787;28;20460;-54
2022/08/20 01:59:16;;;;;;;33.53;14.20;;;;;;;;;;4973704;28;20453;-54
2022/08/20 02:01:42;;;;;;;20.57;13.70;;;;;;;;;;4973309;28;20441;-55
2022/08/20 02:04:09;;;;;;;123.80;18.20;;;;;;;;;;4973893;28;20456;-55
2022/08/20 02:06:36;;;;;;;41.53;14.47;;;;;;;;;;4973824;28;20408;-55
2022/08/20 02:09:03;;;;;;;34.07;16.10;;;;;;;;;;4973373;28;20439;-54
2022/08/20 02:11:30;;;;;;;81.20;21.30;;;;;;;;;;4973774;28;20969;-55
2022/08/20 02:13:56;;;;;;;34.03;18.53;;;;;;;;;;4973724;28;20413;-55
2022/08/20 02:16:24;;;;;;;31.13;17.27;;;;;;;;;;4972473;28;20558;-54
2022/08/20 02:18:53;;;;;;;151.67;22.27;;;;;;;;;;4972614;28;20430;-56
2022/08/20 02:21:19;;;;;;;141.23;23.10;;;;;;;;;;4973633;28;20412;-55
2022/08/20 02:23:45;;;;;;;27.60;18.33;;;;;;;;;;4973393;28;20408;-55
2022/08/20 02:26:11;;;;;;;54.13;21.10;;;;;;;;;;4973451;28;20401;-55
2022/08/20 02:28:37;;;;;;;58.03;20.50;;;;;;;;;;4973247;28;20405;-55
2022/08/20 02:31:07;;;;;;;51.43;22.50;;;;;;;;;;4973340;28;20432;-56
2022/08/20 02:33:33;;;;;;;106.17;26.33;;;;;;;;;;4973506;28;20473;-56
2022/08/20 02:35:59;;;;;;;62.80;22.13;;;;;;;;;;4973185;28;20943;-56
2022/08/20 02:38:25;;;;;;;43.33;22.10;;;;;;;;;;4973213;28;20492;-56
2022/08/20 02:40:51;;;;;;;145.47;23.63;;;;;;;;;;4973144;28;20565;-55
2022/08/20 02:43:18;;;;;;;46.13;23.00;;;;;;;;;;4973334;28;20401;-56
2022/08/20 02:45:45;;;;;;;46.73;24.33;;;;;;;;;;4971305;28;20429;-56
2022/08/20 02:48:19;;;;;;;45.67;21.63;;;;;;;;;;4973209;28;20401;-55
2022/08/20 02:50:46;;;;;;;65.37;23.53;;;;;;;;;;4972841;28;20785;-56
2022/08/20 02:53:11;;;;;;;57.87;24.10;;;;;;;;;;4973044;28;20429;-56
2022/08/20 02:55:38;;;;;;;38.30;21.23;;;;;;;;;;4972998;28;20543;-56
2022/08/20 02:58:04;;;;;;;39.70;21.60;;;;;;;;;;4973063;28;20408;-56
2022/08/20 03:00:31;;;;;;;37.20;22.67;;;;;;;;;;4972767;28;20504;-56
2022/08/20 03:02:58;;;;;;;40.77;22.93;;;;;;;;;;4973080;28;20428;-56
2022/08/20 03:05:24;;;;;;;43.27;22.67;;;;;;;;;;4973015;28;21044;-56
2022/08/20 03:07:55;;;;;;;38.60;22.47;;;;;;;;;;4973116;28;20412;-55
2022/08/20 03:10:23;;;;;;;38.23;21.77;;;;;;;;;;4972763;28;20417;-56
2022/08/20 03:12:49;;;;;;;39.53;21.83;;;;;;;;;;4973554;28;20406;-55
2022/08/20 03:15:15;;;;;;;43.10;24.33;;;;;;;;;;4975807;28;20464;-56
2022/08/20 03:17:41;;;;;;;43.13;23.00;;;;;;;;;;4976855;28;20415;-55
2022/08/20 03:20:07;;;;;;;41.43;23.53;;;;;;;;;;4976638;28;20774;-56
2022/08/20 03:22:34;;;;;;;41.77;22.03;;;;;;;;;;4976965;28;20446;-55
2022/08/20 03:25:00;;;;;;;37.10;21.83;;;;;;;;;;4976696;28;20924;-56
2022/08/20 03:27:26;;;;;;;40.83;23.10;;;;;;;;;;4976712;28;20432;-56
2022/08/20 03:29:52;;;;;;;40.80;22.33;;;;;;;;;;4976350;28;20469;-56
2022/08/20 03:32:18;;;;;;;44.50;24.90;;;;;;;;;;4976585;28;20409;-55
2022/08/20 03:34:44;;;;;;;38.43;23.30;;;;;;;;;;4976584;28;20413;-55
2022/08/20 03:37:10;;;;;;;36.23;21.73;;;;;;;;;;4976421;28;21013;-56
2022/08/20 03:39:36;;;;;;;35.87;21.50;;;;;;;;;;4976331;28;20733;-55
2022/08/20 03:42:03;;;;;;;43.03;22.00;;;;;;;;;;4976502;28;20587;-55
2022/08/20 03:44:28;;;;;;;38.97;23.60;;;;;;;;;;4975665;28;20425;-56
2022/08/20 03:46:54;;;;;;;37.70;22.27;;;;;;;;;;4976278;28;20904;-56
2022/08/20 03:49:23;;;;;;;37.43;21.33;;;;;;;;;;4976009;28;20441;-56
2022/08/20 03:51:49;;;;;;;41.67;23.50;;;;;;;;;;4976199;28;20421;-55
2022/08/20 03:54:15;;;;;;;36.40;21.73;;;;;;;;;;4976339;28;20456;-55
2022/08/20 03:56:40;;;;;;;37.23;23.57;;;;;;;;;;4976057;28;20468;-55
2022/08/20 03:59:07;;;;;;;41.70;20.90;;;;;;;;;;4975893;28;20427;-55
2022/08/20 04:01:33;;;;;;;33.13;19.90;;;;;;;;;;4976093;28;20477;-55
2022/08/20 04:03:59;;;;;;;40.20;21.30;;;;;;;;;;4976112;28;20620;-54
2022/08/20 04:06:28;;;;;;;35.00;21.70;;;;;;;;;;4976164;28;20456;-55
2022/08/20 04:08:54;;;;;;;33.93;20.20;;;;;;;;;;4975765;28;20401;-56
2022/08/20 04:11:20;;;;;;;38.40;21.63;;;;;;;;;;4975943;28;20409;-54
2022/08/20 04:13:46;;;;;;;41.33;22.27;;;;;;;;;;4975935;28;20379;-55
2022/08/20 04:16:12;;;;;;;36.50;21.40;;;;;;;;;;4974563;28;20547;-55
2022/08/20 04:18:38;;;;;;;40.73;22.80;;;;;;;;;;4975724;28;20420;-55
2022/08/20 04:21:04;;;;;;;38.67;21.97;;;;;;;;;;4975865;28;20564;-56
2022/08/20 04:23:30;;;;;;;58.73;20.93;;;;;;;;;;4975249;28;20496;-54
2022/08/20 04:25:57;;;;;;;45.43;23.57;;;;;;;;;;4975761;28;20421;-56
2022/08/20 04:28:26;;;;;;;36.20;22.10;;;;;;;;;;4975724;28;20822;-55
2022/08/20 04:30:55;;;;;;;39.63;20.70;;;;;;;;;;4975435;28;20517;-54
2022/08/20 04:33:24;;;;;;;41.33;21.90;;;;;;;;;;4975618;28;20455;-55
2022/08/20 04:35:51;;;;;;;40.13;22.27;;;;;;;;;;4975366;28;20951;-55
2022/08/20 04:38:17;;;;;;;34.87;21.10;;;;;;;;;;4975573;28;20409;-55
2022/08/20 04:40:53;;;;;;;32.93;18.83;;;;;;;;;;4975169;28;20435;-55
2022/08/20 04:43:29;;;;;;;37.10;21.17;;;;;;;;;;4975385;28;20431;-55
2022/08/20 04:45:56;;;;;;;37.93;20.60;;;;;;;;;;4973656;28;20438;-54
2022/08/20 04:48:27;;;;;;;35.73;21.40;;;;;;;;;;4975406;28;20905;-55
2022/08/20 04:50:53;;;;;;;40.10;21.70;;;;;;;;;;4975081;28;20464;-55
2022/08/20 04:53:21;;;;;;;42.73;21.53;;;;;;;;;;4975079;28;20913;-54
2022/08/20 04:55:47;;;;;;;35.37;20.43;;;;;;;;;;4974906;28;20444;-55
2022/08/20 04:58:22;;;;;;;36.90;21.63;;;;;;;;;;4975111;28;20402;-55
2022/08/20 05:00:49;;;;;;;40.27;23.47;;;;;;;;;;4974819;28;20939;-55
2022/08/20 05:03:15;;;;;;;36.87;21.97;;;;;;;;;;4975003;28;20399;-55
2022/08/20 05:05:41;;;;;;;50.37;24.30;;;;;;;;;;4974932;28;20411;-55
2022/08/20 05:08:07;;;;;;;41.60;23.97;;;;;;;;;;4974824;28;20430;-55
2022/08/20 05:10:37;;;;;;;48.00;24.30;;;;;;;;;;4974821;28;20432;-55
2022/08/20 05:13:03;;;;;;;42.43;24.47;;;;;;;;;;4974871;28;20938;-54
2022/08/20 05:15:29;;;;;;;47.27;25.60;;;;;;;;;;4973145;28;20484;-54
2022/08/20 05:17:59;;;;;;;42.93;24.70;;;;;;;;;;4975149;28;20870;-56
2022/08/20 05:20:30;;;;;;;50.40;23.40;;;;;;;;;;4974526;28;20425;-55
2022/08/20 05:22:55;;;;;;;37.97;22.60;;;;;;;;;;4974577;28;20413;-56
2022/08/20 05:25:21;;;;;;;45.00;22.30;;;;;;;;;;4974582;28;20410;-55
2022/08/20 05:27:47;;;;;;;43.03;22.90;;;;;;;;;;4974630;28;20410;-55
2022/08/20 05:30:13;;;;;;;36.33;20.80;;;;;;;;;;4974253;28;20429;-56
2022/08/20 05:32:40;;;;;;;40.93;20.17;;;;;;;;;;4974450;28;20859;-57
2022/08/20 05:35:09;;;;;;;38.47;21.30;;;;;;;;;;4973794;28;20406;-54
2022/08/20 05:37:39;;;;;;;40.37;22.10;;;;;;;;;;4974032;28;20755;-54
2022/08/20 05:40:13;;;;;;;39.37;23.07;;;;;;;;;;4974465;28;20437;-55
2022/08/20 05:42:39;;;;;;;38.90;21.67;;;;;;;;;;4974334;28;20429;-54
2022/08/20 05:45:06;;;;;;;36.40;21.63;;;;;;;;;;4973298;28;20430;-55
2022/08/20 05:47:32;;;;;;;36.50;20.87;;;;;;;;;;4973195;28;20489;-55
2022/08/20 05:49:59;;;;;;;36.07;21.30;;;;;;;;;;4974917;28;20470;-55
2022/08/20 05:52:25;;;;;;;41.87;21.30;;;;;;;;;;4973660;28;20431;-55
2022/08/20 05:54:53;;;;;;;38.87;21.67;;;;;;;;;;4974031;28;20413;-53
2022/08/20 05:57:19;;;;;;;41.83;21.50;;;;;;;;;;4974038;28;20486;-56
2022/08/20 05:59:46;;;;;;;37.53;20.17;;;;;;;;;;4974010;28;20761;-55
2022/08/20 06:04:56;;;;;;;35.13;20.87;;;;;;;;;;4973774;28;20440;-54
2022/08/20 06:07:22;;;;;;;37.00;20.80;;;;;;;;;;4973856;28;20404;-55
2022/08/20 06:09:49;;;;;;;34.80;19.33;;;;;;;;;;4973582;28;20799;-54
2022/08/20 06:12:15;;;;;;;39.67;19.63;;;;;;;;;;4973825;28;20397;-55
2022/08/20 06:14:42;;;;;;;30.40;18.87;;;;;;;;;;4972724;28;20426;-55
2022/08/20 06:17:12;;;;;;;38.13;21.07;;;;;;;;;;4973635;28;20498;-55
2022/08/20 06:19:39;;;;;;;33.83;21.80;;;;;;;;;;4973316;28;20440;-54
2022/08/20 06:22:06;;;;;;;39.37;21.47;;;;;;;;;;4973586;28;20461;-55
2022/08/20 06:24:32;;;;;;;34.87;20.63;;;;;;;;;;4973543;28;20458;-55
2022/08/20 06:26:59;;;;;;;34.73;19.93;;;;;;;;;;4973595;28;20398;-54
2022/08/20 06:29:26;;;;;;;37.43;19.20;;;;;;;;;;4973220;28;20398;-54
2022/08/20 06:31:52;;;;;;;38.40;21.33;;;;;;;;;;4973495;28;20408;-55
2022/08/20 06:34:18;;;;;;;33.30;19.53;;;;;;;;;;4973394;28;20958;-54
2022/08/20 06:36:45;;;;;;;29.70;17.63;;;;;;;;;;4973304;28;20452;-55
2022/08/20 06:39:12;;;;;;;33.17;20.10;;;;;;;;;;4973068;28;20438;-54
2022/08/20 06:41:38;;;;;;;33.70;17.97;;;;;;;;;;4973356;28;20479;-55
2022/08/20 06:44:05;;;;;;;25.53;15.90;;;;;;;;;;4972007;28;20402;-55
2022/08/20 06:46:31;;;;;;;23.90;15.43;;;;;;;;;;4972045;28;20525;-54
2022/08/20 06:48:57;;;;;;;23.13;15.67;;;;;;;;;;4972952;28;20414;-54
2022/08/20 06:51:23;;;;;;;22.80;15.07;;;;;;;;;;4966823;28;20521;-54
2022/08/20 06:53:49;;;;;;;25.27;15.73;;;;;;;;;;4973206;28;20422;-54
2022/08/20 06:56:15;;;;;;;23.77;15.83;;;;;;;;;;4972938;28;20848;-54
2022/08/20 06:58:42;;;;;;;26.30;14.47;;;;;;;;;;4972900;28;20399;-55
2022/08/20 07:01:09;;;;;;;23.80;14.93;;;;;;;;;;4972967;28;20403;-55
2022/08/20 07:03:36;;;;;;;25.63;16.50;;;;;;;;;;4973300;28;20955;-54
2022/08/20 07:06:03;;;;;;;22.30;15.30;;;;;;;;;;4973000;28;20902;-55
2022/08/20 07:08:29;;;;;;;26.80;16.97;;;;;;;;;;4972888;28;20467;-54
2022/08/20 07:10:55;;;;;;;26.67;16.20;;;;;;;;;;4972852;28;20426;-55
2022/08/20 07:13:21;;;;;;;28.57;17.60;;;;;;;;;;4972989;28;20410;-56
2022/08/20 07:15:49;;;;;;;25.57;17.07;;;;;;;;;;4971705;28;20466;-55
2022/08/20 07:18:15;;;;;;;25.80;16.80;;;;;;;;;;4973045;28;20786;-55
2022/08/20 07:20:41;;;;;;;28.00;16.13;;;;;;;;;;4972682;28;20918;-55
2022/08/20 07:23:10;;;;;;;26.60;17.00;;;;;;;;;;4972876;28;20411;-55
2022/08/20 07:25:36;;;;;;;26.33;16.83;;;;;;;;;;4972820;28;20417;-55
2022/08/20 07:28:04;;;;;;;20.50;15.27;;;;;;;;;;4972867;28;20412;-55
2022/08/20 07:33:15;;;;;;;21.10;16.57;;;;;;;;;;4973085;28;20507;-55
2022/08/20 07:35:41;;;;;;;20.13;15.30;;;;;;;;;;4972703;28;20559;-55
2022/08/20 07:38:15;;;;;;;22.87;16.10;;;;;;;;;;4972562;28;20466;-55
2022/08/20 07:40:41;;;;;;;21.90;15.30;;;;;;;;;;4967164;28;20811;-54
2022/08/20 07:43:09;;;;;;;18.20;14.03;;;;;;;;;;4971703;28;20416;-55
2022/08/20 07:45:36;;;;;;;17.77;13.07;;;;;;;;;;4971665;28;20490;-54
2022/08/20 07:48:06;;;;;;;13.57;12.17;;;;;;;;;;4971850;28;20418;-55
2022/08/20 07:50:33;;;;;;;17.13;12.33;;;;;;;;;;4972746;28;20423;-55
2022/08/20 07:53:00;;;;;;;11.87;10.60;;;;;;;;;;4973024;28;20824;-58
2022/08/20 07:55:26;;;;;;;13.30;11.80;;;;;;;;;;4972413;28;20815;-57
2022/08/20 07:57:52;;;;;;;13.97;12.53;;;;;;;;;;4972721;28;20412;-57
2022/08/20 08:00:21;;;;;;;17.37;11.90;;;;;;;;;;4974994;28;20609;-58
2022/08/20 08:02:47;;;;;;;15.07;11.80;;;;;;;;;;4976164;28;20407;-58
2022/08/20 08:05:16;;;;;;;18.17;12.37;;;;;;;;;;4976075;28;20408;-58
2022/08/20 08:07:42;;;;;;;14.83;12.70;;;;;;;;;;4976126;28;20400;-58
2022/08/20 08:10:10;;;;;;;16.73;13.00;;;;;;;;;;4975764;28;20943;-57
2022/08/20 08:12:37;;;;;;;15.93;13.13;;;;;;;;;;4976129;28;20451;-56
2022/08/20 08:15:06;;;;;;;16.90;14.30;;;;;;;;;;4975829;28;20409;-57
2022/08/20 08:17:32;;;;;;;15.67;13.30;;;;;;;;;;4974932;28;20440;-57
2022/08/20 08:19:58;;;;;;;14.77;12.63;;;;;;;;;;4975659;28;20424;-58
2022/08/20 08:22:24;;;;;;;15.97;12.73;;;;;;;;;;4975879;28;20484;-57
2022/08/20 08:24:50;;;;;;;15.50;12.50;;;;;;;;;;4975689;28;20908;-58
2022/08/20 08:27:20;;;;;;;18.90;13.63;;;;;;;;;;4975765;28;20397;-57
2022/08/20 08:29:48;;;;;;;17.77;12.97;;;;;;;;;;4975715;28;20413;-58
2022/08/20 08:32:14;;;;;;;15.10;12.60;;;;;;;;;;4975670;28;20480;-57
2022/08/20 08:34:40;;;;;;;16.33;13.10;;;;;;;;;;4975530;28;20405;-57
2022/08/20 08:37:06;;;;;;;13.50;12.13;;;;;;;;;;4975372;28;20452;-57
2022/08/20 08:39:33;;;;;;;17.00;13.07;;;;;;;;;;4975540;28;20421;-58
2022/08/20 08:42:03;;;;;;;15.00;12.20;;;;;;;;;;4975411;28;20762;-58
2022/08/20 08:44:41;;;;;;;12.60;11.40;;;;;;;;;;4975391;28;20417;-58
2022/08/20 08:47:16;;;;;;;12.63;11.43;;;;;;;;;;4974511;28;20441;-58
2022/08/20 08:49:42;;;;;;;13.80;11.20;;;;;;;;;;4975035;28;20896;-57
2022/08/20 08:52:14;;;;;;;14.67;10.80;;;;;;;;;;4975194;28;20915;-57
2022/08/20 08:54:45;;;;;;;11.50;10.40;;;;;;;;;;4975273;28;20413;-57
2022/08/20 08:57:11;;;;;;;12.53;11.07;;;;;;;;;;4975178;28;20518;-57
2022/08/20 08:59:38;;;;;;;11.60;10.50;;;;;;;;;;4974829;28;20430;-56
2022/08/20 09:02:05;;;;;;;12.53;11.33;;;;;;;;;;4974999;28;20412;-58
2022/08/20 09:04:33;;;;;;;12.77;11.43;;;;;;;;;;4974979;28;20467;-58
2022/08/20 09:07:01;;;;;;;13.60;12.20;;;;;;;;;;4974905;28;20905;-58
2022/08/20 09:09:31;;;;;;;15.60;14.00;;;;;;;;;;4974606;28;20432;-58
2022/08/20 09:12:02;;;;;;;17.77;15.73;;;;;;;;;;4974872;28;20412;-57
2022/08/20 09:14:28;;;;;;;21.03;17.97;;;;;;;;;;4974831;28;20408;-58
2022/08/20 09:16:54;;;;;;;20.80;17.23;;;;;;;;;;4973247;28;20464;-58
2022/08/20 09:19:20;;;;;;;23.87;18.80;;;;;;;;;;4974340;28;20931;-58
2022/08/20 09:21:46;;;;;;;21.03;17.80;;;;;;;;;;4973837;28;20408;-58
2022/08/20 09:24:12;;;;;;;23.73;19.80;;;;;;;;;;4974635;28;20893;-58
2022/08/20 09:26:38;;;;;;;24.27;18.43;;;;;;;;;;4974523;28;20897;-58
2022/08/20 09:29:04;;;;;;;25.67;19.73;;;;;;;;;;4974629;28;20432;-58
2022/08/20 09:31:32;;;;;;;25.97;21.70;;;;;;;;;;4974464;28;20877;-57
2022/08/20 09:33:58;;;;;;;30.03;21.90;;;;;;;;;;4974449;28;20409;-57
2022/08/20 09:36:24;;;;;;;38.30;26.23;;;;;;;;;;4974156;28;20491;-56
2022/08/20 09:38:50;;;;;;;34.07;27.77;;;;;;;;;;4974057;28;20408;-58
2022/08/20 09:41:16;;;;;;;31.50;26.67;;;;;;;;;;4974341;28;20405;-58
2022/08/20 09:43:42;;;;;;;37.67;27.00;;;;;;;;;;4974113;28;20441;-58
2022/08/20 09:46:08;;;;;;;37.37;30.40;;;;;;;;;;4973197;28;20432;-58
2022/08/20 09:48:34;;;;;;;30.97;27.50;;;;;;;;;;4973073;28;20490;-57
2022/08/20 09:51:00;;;;;;;37.73;28.17;;;;;;;;;;4974202;28;20935;-58
2022/08/20 09:53:26;;;;;;;32.77;25.53;;;;;;;;;;4973999;28;20912;-58
2022/08/20 09:55:54;;;;;;;33.20;27.27;;;;;;;;;;4973916;28;20947;-57
2022/08/20 09:58:20;;;;;;;34.50;25.23;;;;;;;;;;4973802;28;20455;-57
2022/08/20 10:00:46;;;;;;;27.83;22.80;;;;;;;;;;4973726;28;20906;-57
2022/08/20 10:03:13;;;;;;;24.43;21.60;;;;;;;;;;4973983;28;20405;-57
2022/08/20 10:05:39;;;;;;;28.23;23.80;;;;;;;;;;4973751;28;20405;-57
2022/08/20 10:08:08;;;;;;;29.17;23.37;;;;;;;;;;4973794;28;20412;-57
2022/08/20 10:10:35;;;;;;;28.27;24.83;;;;;;;;;;4973540;28;20499;-57
2022/08/20 10:13:01;;;;;;;34.13;27.00;;;;;;;;;;4973500;28;20780;-57
2022/08/20 10:15:28;;;;;;;35.50;26.97;;;;;;;;;;4973651;28;20487;-57
2022/08/20 10:17:55;;;;;;;35.23;29.33;;;;;;;;;;4972689;28;20519;-57
2022/08/20 10:20:22;;;;;;;39.17;30.43;;;;;;;;;;4973337;28;20519;-55
2022/08/20 10:22:48;;;;;;;36.90;26.83;;;;;;;;;;4973121;28;20923;-56
2022/08/20 10:25:15;;;;;;;36.97;25.60;;;;;;;;;;4973400;28;20405;-57
2022/08/20 10:27:41;;;;;;;27.97;24.67;;;;;;;;;;4973428;28;20901;-57
2022/08/20 10:30:08;;;;;;;26.50;23.50;;;;;;;;;;4973277;28;20935;-57
2022/08/20 10:32:34;;;;;;;26.60;21.97;;;;;;;;;;4973705;28;20792;-57
2022/08/20 10:34:59;;;;;;;26.67;23.33;;;;;;;;;;4973416;28;20944;-57
2022/08/20 10:37:26;;;;;;;29.77;25.13;;;;;;;;;;4973192;28;20456;-57
2022/08/20 10:39:52;;;;;;;28.93;24.57;;;;;;;;;;4972946;28;20529;-57
2022/08/20 10:42:18;;;;;;;29.33;23.70;;;;;;;;;;4973218;28;20394;-57
2022/08/20 10:44:44;;;;;;;34.17;25.57;;;;;;;;;;4973104;28;20747;-57
2022/08/20 10:47:15;;;;;;;28.13;23.27;;;;;;;;;;4973157;28;20408;-57
2022/08/20 10:49:41;;;;;;;24.80;21.83;;;;;;;;;;4971655;28;20748;-57
2022/08/20 10:52:07;;;;;;;26.93;21.70;;;;;;;;;;4973074;28;20432;-57
2022/08/20 10:54:33;;;;;;;24.07;21.60;;;;;;;;;;4972985;28;20984;-57
2022/08/20 10:57:02;;;;;;;19.73;17.73;;;;;;;;;;4973000;28;20556;-56
2022/08/20 10:59:28;;;;;;;22.13;19.83;;;;;;;;;;4972834;28;20421;-57
2022/08/20 11:01:54;;;;;;;20.13;17.80;;;;;;;;;;4973069;28;20855;-57
2022/08/20 11:04:20;;;;;;;18.27;16.40;;;;;;;;;;4972990;28;20397;-56
2022/08/20 11:06:46;;;;;;;18.90;16.97;;;;;;;;;;4972990;28;20405;-56
2022/08/20 11:09:12;;;;;;;20.63;18.43;;;;;;;;;;4972587;28;20924;-56
2022/08/20 11:11:38;;;;;;;17.87;15.53;;;;;;;;;;4972709;28;20413;-57
2022/08/20 11:14:04;;;;;;;16.13;14.53;;;;;;;;;;4972914;28;20405;-56
2022/08/20 11:16:30;;;;;;;16.73;14.77;;;;;;;;;;4969339;28;20459;-55
2022/08/20 11:18:56;;;;;;;15.30;13.73;;;;;;;;;;4971657;28;20524;-55
2022/08/20 11:21:22;;;;;;;18.40;15.67;;;;;;;;;;4973003;28;20408;-57
2022/08/20 11:23:48;;;;;;;18.63;15.20;;;;;;;;;;4973408;28;20455;-57
2022/08/20 11:26:18;;;;;;;15.13;13.60;;;;;;;;;;4972781;28;20405;-57
2022/08/20 11:28:44;;;;;;;14.90;13.37;;;;;;;;;;4972856;28;20405;-57
2022/08/20 11:31:10;;;;;;;15.33;13.40;;;;;;;;;;4972861;28;20959;-57
2022/08/20 11:33:36;;;;;;;14.47;13.07;;;;;;;;;;4973401;28;20805;-56
2022/08/20 11:36:02;;;;;;;16.53;13.47;;;;;;;;;;4976634;28;20453;-56
2022/08/20 11:38:28;;;;;;;15.43;12.20;;;;;;;;;;4976434;28;20433;-55
2022/08/20 11:40:54;;;;;;;14.87;12.57;;;;;;;;;;4976433;28;20472;-56
2022/08/20 11:43:20;;;;;;;14.50;12.83;;;;;;;;;;4976548;28;20401;-56
2022/08/20 11:45:48;;;;;;;12.37;11.17;;;;;;;;;;4976108;28;20405;-54
2022/08/20 11:48:14;;;;;;;17.03;12.53;;;;;;;;;;4978573;28;20916;-57
2022/08/20 11:50:40;;;;;;;14.93;12.60;;;;;;;;;;4978529;28;20449;-55
2022/08/20 11:53:06;;;;;;;13.13;11.53;;;;;;;;;;4979438;28;20907;-57
2022/08/20 11:55:32;;;;;;;12.00;10.80;;;;;;;;;;4979280;28;20459;-56
2022/08/20 11:57:59;;;;;;;12.07;10.80;;;;;;;;;;4978228;28;20498;-53
2022/08/20 12:00:26;;;;;;;11.00;10.00;;;;;;;;;;4976300;28;20421;-54
2022/08/20 12:02:52;;;;;;;14.33;9.87;;;;;;;;;;4976151;28;20410;-52
2022/08/20 12:05:18;;;;;;;12.30;10.67;;;;;;;;;;4975974;28;20476;-52
2022/08/20 12:07:44;;;;;;;11.00;9.90;;;;;;;;;;4976170;28;20483;-52
2022/08/20 12:10:10;;;;;;;13.33;11.00;;;;;;;;;;4975738;28;20421;-54
2022/08/20 12:12:38;;;;;;;11.67;10.47;;;;;;;;;;4975939;28;20885;-52
2022/08/20 12:15:05;;;;;;;12.60;10.73;;;;;;;;;;4976213;28;20760;-53
2022/08/20 12:17:31;;;;;;;11.83;10.63;;;;;;;;;;4974762;28;20487;-53
2022/08/20 12:19:59;;;;;;;15.37;10.87;;;;;;;;;;4974758;28;20444;-51
2022/08/20 12:22:25;;;;;;;12.27;11.07;;;;;;;;;;4975808;28;20839;-53
2022/08/20 12:24:52;;;;;;;13.20;11.90;;;;;;;;;;4975585;28;20428;-51
2022/08/20 12:27:19;;;;;;;15.60;10.17;;;;;;;;;;4975731;28;20801;-52
2022/08/20 12:29:47;;;;;;;11.73;10.60;;;;;;;;;;4974182;28;20862;-53
2022/08/20 12:32:14;;;;;;;14.07;9.10;;;;;;;;;;4975497;28;20401;-52
2022/08/20 12:34:41;;;;;;;11.60;9.80;;;;;;;;;;4975246;28;20409;-53
2022/08/20 12:37:09;;;;;;;11.80;10.13;;;;;;;;;;4975339;28;20464;-51
2022/08/20 12:39:38;;;;;;;10.57;8.47;;;;;;;;;;4975048;28;20425;-52
2022/08/20 12:42:04;;;;;;;9.27;8.47;;;;;;;;;;4975330;28;20778;-52
2022/08/20 12:44:30;;;;;;;9.60;8.30;;;;;;;;;;4974869;28;20503;-51
2022/08/20 12:47:07;;;;;;;11.53;9.13;;;;;;;;;;4975113;28;20484;-51
2022/08/20 12:49:33;;;;;;;11.47;8.70;;;;;;;;;;4973901;28;20956;-51
2022/08/20 12:52:00;;;;;;;12.80;7.80;;;;;;;;;;4974516;28;20453;-51
2022/08/20 12:54:26;;;;;;;12.43;8.37;;;;;;;;;;4975094;28;20416;-52
2022/08/20 12:56:52;;;;;;;9.27;8.10;;;;;;;;;;4974948;28;20559;-52
2022/08/20 12:59:18;;;;;;;10.00;8.77;;;;;;;;;;4974759;28;20445;-52
2022/08/20 13:01:44;;;;;;;10.20;7.30;;;;;;;;;;4974589;28;20180;-52
2022/08/20 13:04:10;;;;;;;8.67;7.60;;;;;;;;;;4974914;28;20401;-52
2022/08/20 13:06:36;;;;;;;10.10;7.43;;;;;;;;;;4974501;28;20240;-52
2022/08/20 13:09:02;;;;;;;10.73;6.30;;;;;;;;;;4974633;28;20689;-52
2022/08/20 13:11:28;;;;;;;6.87;6.30;;;;;;;;;;4975235;28;20177;-51
2022/08/20 13:13:54;;;;;;;6.60;5.87;;;;;;;;;;4974807;28;20944;-51
2022/08/20 13:16:20;;;;;;;7.70;6.20;;;;;;;;;;4974498;28;20609;-51
2022/08/20 13:18:46;;;;;;;7.47;5.90;;;;;;;;;;4973373;28;20196;-52
2022/08/20 13:21:12;;;;;;;7.90;5.57;;;;;;;;;;4974655;28;20178;-51
2022/08/20 13:23:38;;;;;;;10.17;6.50;;;;;;;;;;4974683;28;20500;-53
2022/08/20 13:26:04;;;;;;;7.10;6.40;;;;;;;;;;4974870;28;20512;-52
2022/08/20 13:28:30;;;;;;;8.30;6.60;;;;;;;;;;4974398;28;20409;-51
2022/08/20 13:30:56;;;;;;;7.37;6.57;;;;;;;;;;4974145;28;20437;-52
2022/08/20 13:33:25;;;;;;;7.30;6.60;;;;;;;;;;4974543;28;20459;-54
2022/08/20 13:35:51;;;;;;;10.10;6.07;;;;;;;;;;4972736;28;20490;-53
2022/08/20 13:38:17;;;;;;;12.13;6.67;;;;;;;;;;4974195;28;20935;-51
2022/08/20 13:40:43;;;;;;;10.60;6.30;;;;;;;;;;4974068;28;20421;-51
2022/08/20 13:43:09;;;;;;;6.70;6.10;;;;;;;;;;4974074;28;20464;-51
2022/08/20 13:45:35;;;;;;;6.33;5.10;;;;;;;;;;4974119;28;20952;-51
2022/08/20 13:48:02;;;;;;;8.13;6.00;;;;;;;;;;4973299;28;20658;-51
2022/08/20 13:50:28;;;;;;;5.80;5.20;;;;;;;;;;4973869;28;20939;-51
2022/08/20 13:52:54;;;;;;;8.80;6.07;;;;;;;;;;4973984;28;20424;-51
2022/08/20 13:55:21;;;;;;;6.20;5.60;;;;;;;;;;4973890;28;20519;-51
2022/08/20 13:57:47;;;;;;;6.93;5.63;;;;;;;;;;4973167;28;20476;-51
2022/08/20 14:00:15;;;;;;;5.83;5.27;;;;;;;;;;4973851;28;20849;-51
2022/08/20 14:02:41;;;;;;;8.17;5.27;;;;;;;;;;4973866;28;20409;-51
2022/08/20 14:05:08;;;;;;;6.60;5.87;;;;;;;;;;4973831;28;20406;-51
2022/08/20 14:07:34;;;;;;;7.23;6.40;;;;;;;;;;4973793;28;20839;-52
2022/08/20 14:10:01;;;;;;;7.27;6.10;;;;;;;;;;4972055;28;20444;-53
2022/08/20 14:12:28;;;;;;;6.87;6.17;;;;;;;;;;4973498;28;20408;-51
2022/08/20 14:14:54;;;;;;;9.73;6.83;;;;;;;;;;4973592;28;20405;-52
2022/08/20 14:17:25;;;;;;;9.03;6.43;;;;;;;;;;4973572;28;20456;-51
2022/08/20 14:19:52;;;;;;;8.80;7.43;;;;;;;;;;4972298;28;20960;-51
2022/08/20 14:22:18;;;;;;;10.27;6.87;;;;;;;;;;4973927;28;20404;-51
2022/08/20 14:24:45;;;;;;;7.57;6.80;;;;;;;;;;4973514;28;20936;-51